createdAt,value
2015-07-19T00:00:08.029Z,11.26
2015-07-19T00:00:20.404Z,11.27
2015-07-19T00:00:32.794Z,11.35
2015-07-19T00:00:45.154Z,11.27
2015-07-19T00:00:57.531Z,11.35
2015-07-19T00:01:09.890Z,11.31
2015-07-19T00:01:22.218Z,11.27
2015-07-19T00:01:34.562Z,11.35
2015-07-19T00:01:46.906Z,11.31
2015-07-19T00:01:59.252Z,11.26
2015-07-19T00:02:11.595Z,11.33
2015-07-19T00:02:23.923Z,11.35
2015-07-19T00:02:36.267Z,11.31
2015-07-19T00:02:48.611Z,11.39
2015-07-19T00:03:00.941Z,11.33
2015-07-19T00:03:13.285Z,11.31
2015-07-19T00:03:25.629Z,11.35
2015-07-19T00:03:37.972Z,11.33
2015-07-19T00:03:50.316Z,11.26
2015-07-19T00:04:02.662Z,11.3
2015-07-19T00:04:15.006Z,11.38
2015-07-19T00:04:27.349Z,11.31
2015-07-19T00:04:39.709Z,11.34
2015-07-19T00:04:52.068Z,11.3
2015-07-19T00:05:04.414Z,11.28
2015-07-19T00:05:16.804Z,11.3
2015-07-19T00:05:29.164Z,11.27
2015-07-19T00:05:41.539Z,11.28
2015-07-19T00:05:53.898Z,11.35
2015-07-19T00:06:06.260Z,11.26
2015-07-19T00:06:18.619Z,11.26
2015-07-19T00:06:30.275Z,11.2
2015-07-19T00:06:42.635Z,11.13
2015-07-19T00:06:54.978Z,11.16
2015-07-19T00:07:07.324Z,11.2
2015-07-19T00:07:19.668Z,11.13
2015-07-19T00:07:32.012Z,11.16
2015-07-19T00:07:44.355Z,11.2
2015-07-19T00:07:56.699Z,11.2
2015-07-19T00:08:09.029Z,11.23
2015-07-19T00:08:21.373Z,11.21
2015-07-19T00:08:33.717Z,11.21
2015-07-19T00:08:46.045Z,11.21
2015-07-19T00:08:57.685Z,11.28
2015-07-19T00:09:10.031Z,11.21
2015-07-19T00:09:22.359Z,11.18
2015-07-19T00:09:34.719Z,11.23
2015-07-19T00:09:47.062Z,11.24
2015-07-19T00:09:59.406Z,11.18
2015-07-19T00:10:11.735Z,11.21
2015-07-19T00:10:24.110Z,11.12
2015-07-19T00:10:36.470Z,11.21
2015-07-19T00:10:48.829Z,11.16
2015-07-19T00:11:01.188Z,11.18
2015-07-19T00:11:13.565Z,11.21
2015-07-19T00:11:25.925Z,11.24
2015-07-19T00:11:38.300Z,11.23
2015-07-19T00:11:50.675Z,11.15
2015-07-19T00:12:03.053Z,11.24
2015-07-19T00:12:15.412Z,11.2
2015-07-19T00:12:27.787Z,11.15
2015-07-19T00:12:40.131Z,11.24
2015-07-19T00:12:52.475Z,11.23
2015-07-19T00:13:04.117Z,11.21
2015-07-19T00:13:16.461Z,11.21
2015-07-19T00:13:28.805Z,11.24
2015-07-19T00:13:41.133Z,11.23
2015-07-19T00:13:53.477Z,11.27
2015-07-19T00:14:05.822Z,11.16
2015-07-19T00:14:18.166Z,11.21
2015-07-19T00:14:30.510Z,11.21
2015-07-19T00:14:42.854Z,11.16
2015-07-19T00:14:55.197Z,11.18
2015-07-19T00:15:07.542Z,11.23
2015-07-19T00:15:19.886Z,11.21
2015-07-19T00:15:32.230Z,11.23
2015-07-19T00:15:44.573Z,11.21
2015-07-19T00:15:56.902Z,11.23
2015-07-19T00:16:09.279Z,11.12
2015-07-19T00:16:21.622Z,11.26
2015-07-19T00:16:33.982Z,11.16
2015-07-19T00:16:46.341Z,11.28
2015-07-19T00:16:58.716Z,11.18
2015-07-19T00:17:11.093Z,11.26
2015-07-19T00:17:23.452Z,11.16
2015-07-19T00:17:35.827Z,11.18
2015-07-19T00:17:48.187Z,11.26
2015-07-19T00:18:00.546Z,11.16
2015-07-19T00:18:12.923Z,11.24
2015-07-19T00:18:25.267Z,11.27
2015-07-19T00:18:37.611Z,11.24
2015-07-19T00:18:49.954Z,11.16
2015-07-19T00:19:02.298Z,11.21
2015-07-19T00:19:14.645Z,11.2
2015-07-19T00:19:26.973Z,11.24
2015-07-19T00:19:39.332Z,11.23
2015-07-19T00:19:51.676Z,11.21
2015-07-19T00:20:04.036Z,11.13
2015-07-19T00:20:16.380Z,11.24
2015-07-19T00:20:28.724Z,11.23
2015-07-19T00:20:41.052Z,11.24
2015-07-19T00:20:53.396Z,11.15
2015-07-19T00:21:05.724Z,11.2
2015-07-19T00:21:18.085Z,11.16
2015-07-19T00:21:30.460Z,11.21
2015-07-19T00:21:42.789Z,11.24
2015-07-19T00:21:55.132Z,11.24
2015-07-19T00:22:07.476Z,11.28
2015-07-19T00:22:19.822Z,11.23
2015-07-19T00:22:32.197Z,11.15
2015-07-19T00:22:44.572Z,11.18
2015-07-19T00:22:56.931Z,11.16
2015-07-19T00:23:09.306Z,11.2
2015-07-19T00:23:21.683Z,11.16
2015-07-19T00:23:34.074Z,11.2
2015-07-19T00:23:46.433Z,11.24
2015-07-19T00:23:58.824Z,11.27
2015-07-19T00:24:10.449Z,11.2
2015-07-19T00:24:22.795Z,11.23
2015-07-19T00:24:35.123Z,11.23
2015-07-19T00:24:47.466Z,11.23
2015-07-19T00:24:59.795Z,11.21
2015-07-19T00:25:12.138Z,11.15
2015-07-19T00:25:24.484Z,11.27
2015-07-19T00:25:36.843Z,11.21
2015-07-19T00:25:49.203Z,11.26
2015-07-19T00:26:01.547Z,11.18
2015-07-19T00:26:13.875Z,11.16
2015-07-19T00:26:26.220Z,11.16
2015-07-19T00:26:38.580Z,11.24
2015-07-19T00:26:50.908Z,11.18
2015-07-19T00:27:03.236Z,11.2
2015-07-19T00:27:15.580Z,11.16
2015-07-19T00:27:27.941Z,11.26
2015-07-19T00:27:40.301Z,11.33
2015-07-19T00:27:52.629Z,11.2
2015-07-19T00:28:04.988Z,11.21
2015-07-19T00:28:17.347Z,11.2
2015-07-19T00:28:29.709Z,11.24
2015-07-19T00:28:42.084Z,11.24
2015-07-19T00:28:54.443Z,11.23
2015-07-19T00:29:06.803Z,11.34
2015-07-19T00:29:19.162Z,11.13
2015-07-19T00:29:31.523Z,11.24
2015-07-19T00:29:43.914Z,11.21
2015-07-19T00:29:56.258Z,11.18
2015-07-19T00:30:08.601Z,11.18
2015-07-19T00:30:20.945Z,11.16
2015-07-19T00:30:33.290Z,11.27
2015-07-19T00:30:45.618Z,11.2
2015-07-19T00:30:57.962Z,11.21
2015-07-19T00:31:10.290Z,11.16
2015-07-19T00:31:22.634Z,11.13
2015-07-19T00:31:34.980Z,11.21
2015-07-19T00:31:47.324Z,11.27
2015-07-19T00:31:59.668Z,11.26
2015-07-19T00:32:11.996Z,11.23
2015-07-19T00:32:24.340Z,11.16
2015-07-19T00:32:36.670Z,11.18
2015-07-19T00:32:49.014Z,11.26
2015-07-19T00:33:01.357Z,11.27
2015-07-19T00:33:13.686Z,11.21
2015-07-19T00:33:26.045Z,11.28
2015-07-19T00:33:38.406Z,11.27
2015-07-19T00:33:50.766Z,11.26
2015-07-19T00:34:03.125Z,11.21
2015-07-19T00:34:15.500Z,11.33
2015-07-19T00:34:27.859Z,11.35
2015-07-19T00:34:40.235Z,11.31
2015-07-19T00:34:52.579Z,11.28
2015-07-19T00:35:04.954Z,11.27
2015-07-19T00:35:17.298Z,11.27
2015-07-19T00:35:29.642Z,11.31
2015-07-19T00:35:41.987Z,11.26
2015-07-19T00:35:54.331Z,11.31
2015-07-19T00:36:06.675Z,11.28
2015-07-19T00:36:19.019Z,11.35
2015-07-19T00:36:31.347Z,11.38
2015-07-19T00:36:43.694Z,11.34
2015-07-19T00:36:56.037Z,11.35
2015-07-19T00:37:08.397Z,11.28
2015-07-19T00:37:20.740Z,11.41
2015-07-19T00:37:33.084Z,11.38
2015-07-19T00:37:45.429Z,11.41
2015-07-19T00:37:57.788Z,11.35
2015-07-19T00:38:10.132Z,11.35
2015-07-19T00:38:22.460Z,11.41
2015-07-19T00:38:34.804Z,11.28
2015-07-19T00:38:47.135Z,11.35
2015-07-19T00:38:59.479Z,11.38
2015-07-19T00:39:11.823Z,11.41
2015-07-19T00:39:24.182Z,11.34
2015-07-19T00:39:36.557Z,11.39
2015-07-19T00:39:48.933Z,11.34
2015-07-19T00:40:01.339Z,11.41
2015-07-19T00:40:13.714Z,11.41
2015-07-19T00:40:26.074Z,11.39
2015-07-19T00:40:38.433Z,11.38
2015-07-19T00:40:50.669Z,11.43
2015-07-19T00:41:03.013Z,11.34
2015-07-19T00:41:15.357Z,11.41
2015-07-19T00:41:27.701Z,11.33
2015-07-19T00:41:40.029Z,11.42
2015-07-19T00:41:52.374Z,11.41
2015-07-19T00:42:04.718Z,11.38
2015-07-19T00:42:17.046Z,11.34
2015-07-19T00:42:29.390Z,11.41
2015-07-19T00:42:41.718Z,11.42
2015-07-19T00:42:54.065Z,11.41
2015-07-19T00:43:06.424Z,11.38
2015-07-19T00:43:18.768Z,11.42
2015-07-19T00:43:31.112Z,11.38
2015-07-19T00:43:43.440Z,11.41
2015-07-19T00:43:55.785Z,11.42
2015-07-19T00:44:08.144Z,11.43
2015-07-19T00:44:20.472Z,11.39
2015-07-19T00:44:32.847Z,11.34
2015-07-19T00:44:45.207Z,11.35
2015-07-19T00:44:57.568Z,11.38
2015-07-19T00:45:09.927Z,11.41
2015-07-19T00:45:22.302Z,11.35
2015-07-19T00:45:34.677Z,11.38
2015-07-19T00:45:47.052Z,11.43
2015-07-19T00:45:59.429Z,11.38
2015-07-19T00:46:11.804Z,11.38
2015-07-19T00:46:24.179Z,11.41
2015-07-19T00:46:36.554Z,11.41
2015-07-19T00:46:48.914Z,11.39
2015-07-19T00:47:01.259Z,11.41
2015-07-19T00:47:13.603Z,11.38
2015-07-19T00:47:25.947Z,11.38
2015-07-19T00:47:38.275Z,11.38
2015-07-19T00:47:50.619Z,11.31
2015-07-19T00:48:02.965Z,11.38
2015-07-19T00:48:15.308Z,11.31
2015-07-19T00:48:27.636Z,11.33
2015-07-19T00:48:39.980Z,11.31
2015-07-19T00:48:51.605Z,11.31
2015-07-19T00:49:03.951Z,11.34
2015-07-19T00:49:16.295Z,11.28
2015-07-19T00:49:28.623Z,11.27
2015-07-19T00:49:40.982Z,11.21
2015-07-19T00:49:53.326Z,11.33
2015-07-19T00:50:05.656Z,11.38
2015-07-19T00:50:18.015Z,11.28
2015-07-19T00:50:30.375Z,11.24
2015-07-19T00:50:42.719Z,11.3
2015-07-19T00:50:55.080Z,11.23
2015-07-19T00:51:07.439Z,11.27
2015-07-19T00:51:19.799Z,11.27
2015-07-19T00:51:32.189Z,11.27
2015-07-19T00:51:44.564Z,11.31
2015-07-19T00:51:56.941Z,11.16
2015-07-19T00:52:09.285Z,11.31
2015-07-19T00:52:21.629Z,11.18
2015-07-19T00:52:33.269Z,11.21
2015-07-19T00:52:45.613Z,11.28
2015-07-19T00:52:57.943Z,11.27
2015-07-19T00:53:10.287Z,11.13
2015-07-19T00:53:22.631Z,11.27
2015-07-19T00:53:34.975Z,11.18
2015-07-19T00:53:47.303Z,11.18
2015-07-19T00:53:59.648Z,11.27
2015-07-19T00:54:11.977Z,11.34
2015-07-19T00:54:24.320Z,11.16
2015-07-19T00:54:36.648Z,11.24
2015-07-19T00:54:48.992Z,11.31
2015-07-19T00:55:01.338Z,11.27
2015-07-19T00:55:13.697Z,11.26
2015-07-19T00:55:26.041Z,11.28
2015-07-19T00:55:38.416Z,11.16
2015-07-19T00:55:50.775Z,11.2
2015-07-19T00:56:02.434Z,11.2
2015-07-19T00:56:14.090Z,11.23
2015-07-19T00:56:26.449Z,11.18
2015-07-19T00:56:38.824Z,11.21
2015-07-19T00:56:51.168Z,11.23
2015-07-19T00:57:03.514Z,11.26
2015-07-19T00:57:15.858Z,11.16
2015-07-19T00:57:28.186Z,11.18
2015-07-19T00:57:40.561Z,11.21
2015-07-19T00:57:52.201Z,11.2
2015-07-19T00:58:04.531Z,11.21
2015-07-19T00:58:16.860Z,11.24
2015-07-19T00:58:29.203Z,11.18
2015-07-19T00:58:41.531Z,11.27
2015-07-19T00:58:54.141Z,11.21
2015-07-19T00:59:06.487Z,11.2
2015-07-19T00:59:18.830Z,11.2
2015-07-19T00:59:31.158Z,11.18
2015-07-19T00:59:43.502Z,11.23
2015-07-19T00:59:55.846Z,11.2
2015-07-19T01:00:08.191Z,11.2
2015-07-19T01:00:20.519Z,11.24
2015-07-19T01:00:32.894Z,11.18
2015-07-19T01:00:45.238Z,11.18
2015-07-19T01:00:57.581Z,11.16
2015-07-19T01:01:09.943Z,11.18
2015-07-19T01:01:22.333Z,11.21
2015-07-19T01:01:34.708Z,11.23
2015-07-19T01:01:47.083Z,11.21
2015-07-19T01:01:59.443Z,11.2
2015-07-19T01:02:11.821Z,11.21
2015-07-19T01:02:24.196Z,11.16
2015-07-19T01:02:36.539Z,11.23
2015-07-19T01:02:48.868Z,11.28
2015-07-19T01:03:01.211Z,11.23
2015-07-19T01:03:13.541Z,11.18
2015-07-19T01:03:25.870Z,11.21
2015-07-19T01:03:38.213Z,11.18
2015-07-19T01:03:50.541Z,11.15
2015-07-19T01:04:02.885Z,11.21
2015-07-19T01:04:15.214Z,11.2
2015-07-19T01:04:27.574Z,11.18
2015-07-19T01:04:39.917Z,11.2
2015-07-19T01:04:52.261Z,11.21
2015-07-19T01:05:04.589Z,11.15
2015-07-19T01:05:16.936Z,11.21
2015-07-19T01:05:29.280Z,11.18
2015-07-19T01:05:41.624Z,11.18
2015-07-19T01:05:53.952Z,11.15
2015-07-19T01:06:06.295Z,11.15
2015-07-19T01:06:18.657Z,11.18
2015-07-19T01:06:31.001Z,11.21
2015-07-19T01:06:43.360Z,11.18
2015-07-19T01:06:55.735Z,11.24
2015-07-19T01:07:08.094Z,11.18
2015-07-19T01:07:20.470Z,11.16
2015-07-19T01:07:32.814Z,11.15
2015-07-19T01:07:45.173Z,11.2
2015-07-19T01:07:57.548Z,11.18
2015-07-19T01:08:09.908Z,11.13
2015-07-19T01:08:22.269Z,11.13
2015-07-19T01:08:34.613Z,11.16
2015-07-19T01:08:46.941Z,11.15
2015-07-19T01:08:59.285Z,11.15
2015-07-19T01:09:11.629Z,11.18
2015-07-19T01:09:23.974Z,11.13
2015-07-19T01:09:36.318Z,11.12
2015-07-19T01:09:48.662Z,11.15
2015-07-19T01:10:01.006Z,11.15
2015-07-19T01:10:13.351Z,11.09
2015-07-19T01:10:25.711Z,11.18
2015-07-19T01:10:38.054Z,11.1
2015-07-19T01:10:50.398Z,11.1
2015-07-19T01:11:02.742Z,11.13
2015-07-19T01:11:15.072Z,11.16
2015-07-19T01:11:27.416Z,11.1
2015-07-19T01:11:39.744Z,11.12
2015-07-19T01:11:52.103Z,11.13
2015-07-19T01:12:04.447Z,11.15
2015-07-19T01:12:16.793Z,11.13
2015-07-19T01:12:29.137Z,11.18
2015-07-19T01:12:41.496Z,11.13
2015-07-19T01:12:53.855Z,11.15
2015-07-19T01:13:06.230Z,11.13
2015-07-19T01:13:18.592Z,11.09
2015-07-19T01:13:30.967Z,11.1
2015-07-19T01:13:43.326Z,11.12
2015-07-19T01:13:55.701Z,11.12
2015-07-19T01:14:08.076Z,11.09
2015-07-19T01:14:20.406Z,11.15
2015-07-19T01:14:32.750Z,11.16
2015-07-19T01:14:45.094Z,11.13
2015-07-19T01:14:57.437Z,11.12
2015-07-19T01:15:09.766Z,11.2
2015-07-19T01:15:22.096Z,11.15
2015-07-19T01:15:34.439Z,11.21
2015-07-19T01:15:46.768Z,11.18
2015-07-19T01:15:59.111Z,11.15
2015-07-19T01:16:11.439Z,11.2
2015-07-19T01:16:23.785Z,11.18
2015-07-19T01:16:36.113Z,11.12
2015-07-19T01:16:48.457Z,11.13
2015-07-19T01:17:00.785Z,11.15
2015-07-19T01:17:13.113Z,11.13
2015-07-19T01:17:25.459Z,11.21
2015-07-19T01:17:37.803Z,11.1
2015-07-19T01:17:50.162Z,11.18
2015-07-19T01:18:02.506Z,11.18
2015-07-19T01:18:14.850Z,11.13
2015-07-19T01:18:27.211Z,11.15
2015-07-19T01:18:39.586Z,11.15
2015-07-19T01:18:51.945Z,11.15
2015-07-19T01:19:04.305Z,11.2
2015-07-19T01:19:16.664Z,11.12
2015-07-19T01:19:29.041Z,11.23
2015-07-19T01:19:41.401Z,11.15
2015-07-19T01:19:53.744Z,11.15
2015-07-19T01:20:06.072Z,11.15
2015-07-19T01:20:18.416Z,11.18
2015-07-19T01:20:30.745Z,11.18
2015-07-19T01:20:43.089Z,11.1
2015-07-19T01:20:55.448Z,11.15
2015-07-19T01:21:07.792Z,11.18
2015-07-19T01:21:20.136Z,11.13
2015-07-19T01:21:32.483Z,11.13
2015-07-19T01:21:44.811Z,11.09
2015-07-19T01:21:57.155Z,11.12
2015-07-19T01:22:09.498Z,11.09
2015-07-19T01:22:21.842Z,11.18
2015-07-19T01:22:34.187Z,11.12
2015-07-19T01:22:46.531Z,11.16
2015-07-19T01:22:58.859Z,11.18
2015-07-19T01:23:11.202Z,11.21
2015-07-19T01:23:23.546Z,11.16
2015-07-19T01:23:35.908Z,11.18
2015-07-19T01:23:48.251Z,11.18
2015-07-19T01:24:00.595Z,11.16
2015-07-19T01:24:12.954Z,11.2
2015-07-19T01:24:25.329Z,11.12
2015-07-19T01:24:37.691Z,11.13
2015-07-19T01:24:50.050Z,11.13
2015-07-19T01:25:02.410Z,11.15
2015-07-19T01:25:14.769Z,11.2
2015-07-19T01:25:27.144Z,11.18
2015-07-19T01:25:39.490Z,11.13
2015-07-19T01:25:51.833Z,11.1
2015-07-19T01:26:04.177Z,11.13
2015-07-19T01:26:16.505Z,11.13
2015-07-19T01:26:28.849Z,11.12
2015-07-19T01:26:41.195Z,11.16
2015-07-19T01:26:53.539Z,11.2
2015-07-19T01:27:05.882Z,11.18
2015-07-19T01:27:17.523Z,11.2
2015-07-19T01:27:29.851Z,11.16
2015-07-19T01:27:42.181Z,11.13
2015-07-19T01:27:54.541Z,11.13
2015-07-19T01:28:06.869Z,11.16
2015-07-19T01:28:19.212Z,11.2
2015-07-19T01:28:31.556Z,11.12
2015-07-19T01:28:43.902Z,11.12
2015-07-19T01:28:56.246Z,11.12
2015-07-19T01:29:08.605Z,11.18
2015-07-19T01:29:20.949Z,11.1
2015-07-19T01:29:33.293Z,11.15
2015-07-19T01:29:45.654Z,11.18
2015-07-19T01:29:58.013Z,11.12
2015-07-19T01:30:10.388Z,11.1
2015-07-19T01:30:22.748Z,11.18
2015-07-19T01:30:35.110Z,11.13
2015-07-19T01:30:47.485Z,11.15
2015-07-19T01:30:59.844Z,11.1
2015-07-19T01:31:12.219Z,11.16
2015-07-19T01:31:24.563Z,11.08
2015-07-19T01:31:36.892Z,11.06
2015-07-19T01:31:49.220Z,11.05
2015-07-19T01:32:01.580Z,11.1
2015-07-19T01:32:13.924Z,11.08
2015-07-19T01:32:26.533Z,11.02
2015-07-19T01:32:38.879Z,11.09
2015-07-19T01:32:51.222Z,11.13
2015-07-19T01:33:03.582Z,11.06
2015-07-19T01:33:15.910Z,11.12
2015-07-19T01:33:28.269Z,11.02
2015-07-19T01:33:40.615Z,11.03
2015-07-19T01:33:52.959Z,11.05
2015-07-19T01:34:05.303Z,11.12
2015-07-19T01:34:17.631Z,11.1
2015-07-19T01:34:29.974Z,11.12
2015-07-19T01:34:42.320Z,11.02
2015-07-19T01:34:54.680Z,11.02
2015-07-19T01:35:07.039Z,11.06
2015-07-19T01:35:19.383Z,11
2015-07-19T01:35:31.742Z,11.03
2015-07-19T01:35:44.119Z,11.05
2015-07-19T01:35:56.478Z,11.1
2015-07-19T01:36:08.838Z,11.03
2015-07-19T01:36:21.197Z,11.1
2015-07-19T01:36:33.572Z,11.06
2015-07-19T01:36:45.934Z,11.1
2015-07-19T01:36:58.309Z,11.12
2015-07-19T01:37:10.652Z,11.09
2015-07-19T01:37:22.980Z,11.13
2015-07-19T01:37:35.324Z,11.1
2015-07-19T01:37:47.670Z,11.1
2015-07-19T01:38:00.014Z,11.21
2015-07-19T01:38:12.357Z,11.12
2015-07-19T01:38:24.701Z,11.16
2015-07-19T01:38:37.045Z,11.18
2015-07-19T01:38:49.406Z,11.2
2015-07-19T01:39:01.750Z,11.23
2015-07-19T01:39:14.078Z,11.26
2015-07-19T01:39:26.672Z,11.13
2015-07-19T01:39:39.031Z,11.16
2015-07-19T01:39:51.361Z,11.28
2015-07-19T01:40:03.690Z,11.23
2015-07-19T01:40:16.033Z,11.28
2015-07-19T01:40:28.393Z,11.41
2015-07-19T01:40:40.736Z,11.41
2015-07-19T01:40:53.097Z,11.41
2015-07-19T01:41:05.441Z,11.34
2015-07-19T01:41:17.816Z,11.41
2015-07-19T01:41:30.175Z,11.38
2015-07-19T01:41:42.550Z,11.39
2015-07-19T01:41:54.911Z,11.39
2015-07-19T01:42:07.286Z,11.43
2015-07-19T01:42:19.661Z,11.43
2015-07-19T01:42:32.005Z,11.42
2015-07-19T01:42:44.349Z,11.42
2015-07-19T01:42:56.679Z,11.42
2015-07-19T01:43:09.023Z,11.48
2015-07-19T01:43:21.366Z,11.42
2015-07-19T01:43:33.710Z,11.46
2015-07-19T01:43:46.054Z,11.43
2015-07-19T01:43:58.384Z,11.45
2015-07-19T01:44:10.728Z,11.48
2015-07-19T01:44:23.103Z,11.39
2015-07-19T01:44:35.447Z,11.45
2015-07-19T01:44:47.790Z,11.42
2015-07-19T01:45:00.121Z,11.45
2015-07-19T01:45:12.465Z,11.45
2015-07-19T01:45:24.793Z,11.43
2015-07-19T01:45:37.137Z,11.53
2015-07-19T01:45:49.481Z,11.38
2015-07-19T01:46:01.827Z,11.45
2015-07-19T01:46:14.186Z,11.46
2015-07-19T01:46:26.530Z,11.43
2015-07-19T01:46:38.873Z,11.52
2015-07-19T01:46:50.530Z,11.39
2015-07-19T01:47:02.907Z,11.38
2015-07-19T01:47:15.266Z,11.53
2015-07-19T01:47:27.641Z,11.42
2015-07-19T01:47:40.000Z,11.52
2015-07-19T01:47:52.375Z,11.46
2015-07-19T01:48:04.737Z,11.43
2015-07-19T01:48:17.081Z,11.46
2015-07-19T01:48:29.409Z,11.35
2015-07-19T01:48:41.752Z,11.43
2015-07-19T01:48:54.096Z,11.42
2015-07-19T01:49:06.441Z,11.46
2015-07-19T01:49:18.785Z,11.46
2015-07-19T01:49:31.128Z,11.46
2015-07-19T01:49:43.472Z,11.41
2015-07-19T01:49:55.816Z,11.43
2015-07-19T01:50:08.162Z,11.41
2015-07-19T01:50:20.505Z,11.42
2015-07-19T01:50:32.849Z,11.48
2015-07-19T01:50:45.209Z,11.48
2015-07-19T01:50:57.537Z,11.43
2015-07-19T01:51:09.882Z,11.38
2015-07-19T01:51:22.226Z,11.43
2015-07-19T01:51:34.586Z,11.48
2015-07-19T01:51:46.929Z,11.45
2015-07-19T01:51:59.273Z,11.45
2015-07-19T01:52:11.635Z,11.46
2015-07-19T01:52:23.995Z,11.43
2015-07-19T01:52:36.385Z,11.39
2015-07-19T01:52:48.745Z,11.45
2015-07-19T01:53:01.105Z,11.39
2015-07-19T01:53:13.480Z,11.46
2015-07-19T01:53:25.840Z,11.49
2015-07-19T01:53:38.199Z,11.48
2015-07-19T01:53:50.590Z,11.52
2015-07-19T01:54:02.920Z,11.49
2015-07-19T01:54:15.263Z,11.49
2015-07-19T01:54:27.607Z,11.52
2015-07-19T01:54:39.935Z,11.49
2015-07-19T01:54:52.279Z,11.51
2015-07-19T01:55:04.625Z,11.53
2015-07-19T01:55:16.250Z,11.48
2015-07-19T01:55:28.594Z,11.52
2015-07-19T01:55:40.937Z,11.52
2015-07-19T01:55:53.265Z,11.48
2015-07-19T01:56:05.611Z,11.57
2015-07-19T01:56:17.939Z,11.51
2015-07-19T01:56:30.283Z,11.49
2015-07-19T01:56:42.611Z,11.49
2015-07-19T01:56:54.955Z,11.46
2015-07-19T01:57:07.301Z,11.42
2015-07-19T01:57:19.629Z,11.51
2015-07-19T01:57:31.988Z,11.49
2015-07-19T01:57:44.332Z,11.48
2015-07-19T01:57:56.691Z,11.56
2015-07-19T01:58:09.053Z,11.52
2015-07-19T01:58:21.443Z,11.46
2015-07-19T01:58:33.803Z,11.49
2015-07-19T01:58:46.178Z,11.49
2015-07-19T01:58:58.537Z,11.46
2015-07-19T01:59:10.914Z,11.49
2015-07-19T01:59:23.273Z,11.45
2015-07-19T01:59:35.648Z,11.48
2015-07-19T01:59:48.008Z,11.49
2015-07-19T02:00:00.336Z,11.51
2015-07-19T02:00:12.682Z,11.48
2015-07-19T02:00:25.010Z,11.49
2015-07-19T02:00:37.354Z,11.45
2015-07-19T02:00:49.697Z,11.51
2015-07-19T02:01:02.041Z,11.46
2015-07-19T02:01:14.402Z,11.49
2015-07-19T02:01:26.746Z,11.46
2015-07-19T02:01:39.106Z,11.42
2015-07-19T02:01:51.434Z,11.51
2015-07-19T02:02:03.777Z,11.57
2015-07-19T02:02:16.123Z,11.53
2015-07-19T02:02:28.483Z,11.49
2015-07-19T02:02:40.811Z,11.49
2015-07-19T02:02:53.154Z,11.49
2015-07-19T02:03:05.483Z,11.48
2015-07-19T02:03:17.828Z,11.46
2015-07-19T02:03:30.172Z,11.51
2015-07-19T02:03:42.516Z,11.49
2015-07-19T02:03:54.860Z,11.49
2015-07-19T02:04:07.235Z,11.48
2015-07-19T02:04:19.595Z,11.48
2015-07-19T02:04:31.970Z,11.49
2015-07-19T02:04:44.329Z,11.48
2015-07-19T02:04:55.970Z,11.48
2015-07-19T02:05:08.345Z,11.49
2015-07-19T02:05:20.723Z,11.49
2015-07-19T02:05:33.067Z,11.45
2015-07-19T02:05:45.410Z,11.53
2015-07-19T02:05:57.739Z,11.52
2015-07-19T02:06:10.082Z,11.52
2015-07-19T02:06:22.428Z,11.46
2015-07-19T02:06:34.772Z,11.51
2015-07-19T02:06:47.100Z,11.52
2015-07-19T02:06:59.444Z,11.51
2015-07-19T02:07:11.787Z,11.57
2015-07-19T02:07:24.132Z,11.52
2015-07-19T02:07:36.476Z,11.49
2015-07-19T02:07:49.070Z,11.48
2015-07-19T02:08:01.429Z,11.52
2015-07-19T02:08:13.757Z,11.46
2015-07-19T02:08:26.087Z,11.51
2015-07-19T02:08:38.431Z,11.46
2015-07-19T02:08:50.790Z,11.52
2015-07-19T02:09:03.150Z,11.49
2015-07-19T02:09:15.494Z,11.46
2015-07-19T02:09:27.856Z,11.48
2015-07-19T02:09:40.231Z,11.51
2015-07-19T02:09:52.606Z,11.56
2015-07-19T02:10:04.965Z,11.52
2015-07-19T02:10:17.340Z,11.51
2015-07-19T02:10:29.717Z,11.52
2015-07-19T02:10:42.092Z,11.49
2015-07-19T02:10:54.436Z,11.53
2015-07-19T02:11:06.780Z,11.48
2015-07-19T02:11:19.124Z,11.52
2015-07-19T02:11:31.469Z,11.38
2015-07-19T02:11:43.797Z,11.48
2015-07-19T02:11:56.141Z,11.41
2015-07-19T02:12:08.485Z,11.46
2015-07-19T02:12:20.815Z,11.41
2015-07-19T02:12:33.174Z,11.45
2015-07-19T02:12:45.518Z,11.46
2015-07-19T02:12:57.862Z,11.42
2015-07-19T02:13:10.206Z,11.43
2015-07-19T02:13:22.550Z,11.46
2015-07-19T02:13:34.894Z,11.49
2015-07-19T02:13:47.238Z,11.39
2015-07-19T02:13:59.582Z,11.39
2015-07-19T02:14:11.925Z,11.41
2015-07-19T02:14:24.271Z,11.49
2015-07-19T02:14:36.631Z,11.39
2015-07-19T02:14:48.990Z,11.42
2015-07-19T02:15:01.334Z,11.42
2015-07-19T02:15:13.709Z,11.42
2015-07-19T02:15:26.086Z,11.41
2015-07-19T02:15:38.445Z,11.42
2015-07-19T02:15:50.820Z,11.38
2015-07-19T02:16:03.179Z,11.41
2015-07-19T02:16:15.554Z,11.39
2015-07-19T02:16:27.916Z,11.38
2015-07-19T02:16:40.260Z,11.38
2015-07-19T02:16:52.588Z,11.35
2015-07-19T02:17:04.916Z,11.38
2015-07-19T02:17:17.260Z,11.35
2015-07-19T02:17:29.621Z,11.38
2015-07-19T02:17:41.965Z,11.33
2015-07-19T02:17:54.308Z,11.35
2015-07-19T02:18:06.668Z,11.34
2015-07-19T02:18:19.012Z,11.38
2015-07-19T02:18:31.374Z,11.34
2015-07-19T02:18:43.702Z,11.35
2015-07-19T02:18:56.046Z,11.41
2015-07-19T02:19:08.390Z,11.41
2015-07-19T02:19:20.733Z,11.34
2015-07-19T02:19:33.079Z,11.43
2015-07-19T02:19:45.407Z,11.39
2015-07-19T02:19:57.751Z,11.38
2015-07-19T02:20:10.110Z,11.34
2015-07-19T02:20:22.735Z,11.38
2015-07-19T02:20:35.096Z,11.39
2015-07-19T02:20:47.455Z,11.38
2015-07-19T02:20:59.127Z,11.34
2015-07-19T02:21:11.471Z,11.34
2015-07-19T02:21:23.830Z,11.38
2015-07-19T02:21:36.207Z,11.38
2015-07-19T02:21:48.582Z,11.43
2015-07-19T02:22:00.957Z,11.43
2015-07-19T02:22:13.316Z,11.35
2015-07-19T02:22:25.660Z,11.39
2015-07-19T02:22:38.006Z,11.38
2015-07-19T02:22:50.334Z,11.38
2015-07-19T02:23:02.678Z,11.41
2015-07-19T02:23:15.022Z,11.39
2015-07-19T02:23:27.365Z,11.42
2015-07-19T02:23:39.695Z,11.35
2015-07-19T02:23:52.039Z,11.39
2015-07-19T02:24:03.695Z,11.39
2015-07-19T02:24:16.039Z,11.41
2015-07-19T02:24:28.367Z,11.43
2015-07-19T02:24:40.713Z,11.38
2015-07-19T02:24:53.041Z,11.46
2015-07-19T02:25:05.369Z,11.45
2015-07-19T02:25:17.713Z,11.45
2015-07-19T02:25:30.057Z,11.42
2015-07-19T02:25:42.403Z,11.52
2015-07-19T02:25:54.762Z,11.53
2015-07-19T02:26:07.121Z,11.38
2015-07-19T02:26:19.465Z,11.49
2015-07-19T02:26:31.840Z,11.49
2015-07-19T02:26:44.217Z,11.51
2015-07-19T02:26:56.592Z,11.51
2015-07-19T02:27:08.951Z,11.48
2015-07-19T02:27:21.326Z,11.56
2015-07-19T02:27:33.530Z,11.52
2015-07-19T02:27:45.875Z,11.48
2015-07-19T02:27:58.235Z,11.53
2015-07-19T02:28:10.578Z,11.59
2015-07-19T02:28:22.907Z,11.56
2015-07-19T02:28:35.266Z,11.6
2015-07-19T02:28:47.612Z,11.61
2015-07-19T02:28:59.955Z,11.6
2015-07-19T02:29:12.299Z,11.61
2015-07-19T02:29:24.627Z,11.6
2015-07-19T02:29:36.955Z,11.61
2015-07-19T02:29:49.301Z,11.64
2015-07-19T02:30:01.629Z,11.61
2015-07-19T02:30:13.973Z,11.6
2015-07-19T02:30:26.332Z,11.63
2015-07-19T02:30:38.661Z,11.6
2015-07-19T02:30:50.991Z,11.6
2015-07-19T02:31:03.334Z,11.57
2015-07-19T02:31:15.678Z,11.64
2015-07-19T02:31:28.006Z,11.67
2015-07-19T02:31:40.366Z,11.63
2015-07-19T02:31:52.727Z,11.64
2015-07-19T02:32:05.071Z,11.63
2015-07-19T02:32:17.415Z,11.59
2015-07-19T02:32:29.774Z,11.64
2015-07-19T02:32:42.133Z,11.67
2015-07-19T02:32:54.495Z,11.67
2015-07-19T02:33:06.870Z,11.67
2015-07-19T02:33:19.245Z,11.68
2015-07-19T02:33:31.635Z,11.66
2015-07-19T02:33:43.995Z,11.71
2015-07-19T02:33:56.356Z,11.67
2015-07-19T02:34:08.700Z,11.6
2015-07-19T02:34:21.028Z,11.75
2015-07-19T02:34:33.372Z,11.67
2015-07-19T02:34:45.715Z,11.71
2015-07-19T02:34:58.046Z,11.71
2015-07-19T02:35:10.389Z,11.68
2015-07-19T02:35:22.733Z,11.76
2015-07-19T02:35:35.077Z,11.76
2015-07-19T02:35:47.421Z,11.7
2015-07-19T02:35:59.766Z,11.73
2015-07-19T02:36:12.110Z,11.71
2015-07-19T02:36:24.454Z,11.73
2015-07-19T02:36:36.798Z,11.68
2015-07-19T02:36:49.141Z,11.71
2015-07-19T02:37:01.487Z,11.73
2015-07-19T02:37:13.831Z,11.73
2015-07-19T02:37:26.190Z,11.73
2015-07-19T02:37:38.534Z,11.71
2015-07-19T02:37:50.894Z,11.7
2015-07-19T02:38:03.254Z,11.78
2015-07-19T02:38:15.629Z,11.76
2015-07-19T02:38:28.004Z,11.82
2015-07-19T02:38:40.363Z,11.75
2015-07-19T02:38:52.724Z,11.75
2015-07-19T02:39:05.084Z,11.7
2015-07-19T02:39:17.443Z,11.78